sensor_id;sensor_type;location;lat;lon;timestamp;pressure;altitude;pressure_sealevel;temperature;humidity
36852;BME280;22784;52.476;13.424;2022-08-16T00:01:22;100020.00;;;23.86;100.00
36852;BME280;22784;52.476;13.424;2022-08-16T00:05:27;100012.38;;;23.81;100.00
36852;BME280;22784;52.476;13.424;2022-08-16T00:09:34;99981.38;;;23.62;100.00
36852;BME280;22784;52.476;13.424;2022-08-16T00:13:38;100003.75;;;23.79;100.00
36852;BME280;22784;52.476;13.424;2022-08-16T00:17:45;99999.66;;;23.69;100.00
36852;BME280;22784;52.476;13.424;2022-08-16T00:21:49;100002.44;;;23.63;100.00
36852;BME280;22784;52.476;13.424;2022-08-16T00:29:59;100012.84;;;23.68;100.00
36852;BME280;22784;52.476;13.424;2022-08-16T00:34:06;100013.38;;;23.67;100.00
36852;BME280;22784;52.476;13.424;2022-08-16T00:38:09;100021.22;;;23.68;100.00
36852;BME280;22784;52.476;13.424;2022-08-16T00:42:14;100020.19;;;23.55;100.00
36852;BME280;22784;52.476;13.424;2022-08-16T00:46:22;100033.59;;;23.51;100.00
36852;BME280;22784;52.476;13.424;2022-08-16T00:50:33;100031.25;;;23.38;100.00
36852;BME280;22784;52.476;13.424;2022-08-16T00:54:37;100031.25;;;23.38;100.00
36852;BME280;22784;52.476;13.424;2022-08-16T00:58:45;100001.19;;;23.11;100.00
36852;BME280;22784;52.476;13.424;2022-08-16T01:02:50;100036.00;;;23.26;100.00
36852;BME280;22784;52.476;13.424;2022-08-16T01:06:57;100034.97;;;23.24;100.00
36852;BME280;22784;52.476;13.424;2022-08-16T01:11:05;100038.28;;;23.28;100.00
36852;BME280;22784;52.476;13.424;2022-08-16T01:15:09;100026.59;;;23.24;100.00
36852;BME280;22784;52.476;13.424;2022-08-16T01:19:20;100020.00;;;23.27;100.00
36852;BME280;22784;52.476;13.424;2022-08-16T01:23:33;100039.03;;;23.28;100.00
36852;BME280;22784;52.476;13.424;2022-08-16T01:27:46;100053.28;;;23.36;100.00
36852;BME280;22784;52.476;13.424;2022-08-16T01:31:51;100041.63;;;23.32;100.00
36852;BME280;22784;52.476;13.424;2022-08-16T01:35:58;100063.69;;;23.41;100.00
36852;BME280;22784;52.476;13.424;2022-08-16T01:40:05;100054.47;;;23.24;100.00
36852;BME280;22784;52.476;13.424;2022-08-16T01:44:19;100049.44;;;23.28;100.00
36852;BME280;22784;52.476;13.424;2022-08-16T01:48:26;100061.13;;;23.32;100.00
36852;BME280;22784;52.476;13.424;2022-08-16T01:52:31;100063.69;;;23.41;100.00
36852;BME280;22784;52.476;13.424;2022-08-16T01:56:38;100040.56;;;23.30;100.00
36852;BME280;22784;52.476;13.424;2022-08-16T02:00:47;100066.75;;;23.43;100.00
36852;BME280;22784;52.476;13.424;2022-08-16T02:04:51;100031.94;;;23.27;100.00
36852;BME280;22784;52.476;13.424;2022-08-16T02:08:57;100053.56;;;23.38;100.00
36852;BME280;22784;52.476;13.424;2022-08-16T02:13:03;100066.22;;;23.39;100.00
36852;BME280;22784;52.476;13.424;2022-08-16T02:17:11;100071.53;;;23.37;100.00
36852;BME280;22784;52.476;13.424;2022-08-16T02:21:22;100064.13;;;23.28;100.00
36852;BME280;22784;52.476;13.424;2022-08-16T02:25:27;100083.94;;;23.31;100.00
36852;BME280;22784;52.476;13.424;2022-08-16T02:29:31;100059.25;;;23.12;100.00
36852;BME280;22784;52.476;13.424;2022-08-16T02:33:38;100081.88;;;23.25;100.00
36852;BME280;22784;52.476;13.424;2022-08-16T02:37:42;100072.13;;;23.10;100.00
36852;BME280;22784;52.476;13.424;2022-08-16T02:41:50;100084.81;;;23.11;100.00
36852;BME280;22784;52.476;13.424;2022-08-16T02:45:54;100059.31;;;22.86;100.00
36852;BME280;22784;52.476;13.424;2022-08-16T02:50:01;100076.41;;;23.05;100.00
36852;BME280;22784;52.476;13.424;2022-08-16T02:54:08;100053.75;;;22.86;100.00
36852;BME280;22784;52.476;13.424;2022-08-16T02:58:13;100077.94;;;23.06;100.00
36852;BME280;22784;52.476;13.424;2022-08-16T03:02:18;100092.97;;;23.14;100.00
36852;BME280;22784;52.476;13.424;2022-08-16T03:06:28;100084.59;;;23.14;100.00
36852;BME280;22784;52.476;13.424;2022-08-16T03:10:39;100087.09;;;23.07;100.00
36852;BME280;22784;52.476;13.424;2022-08-16T03:14:42;100097.03;;;23.19;100.00
36852;BME280;22784;52.476;13.424;2022-08-16T03:18:46;100054.81;;;22.95;100.00
36852;BME280;22784;52.476;13.424;2022-08-16T03:22:53;100085.31;;;23.09;100.00
36852;BME280;22784;52.476;13.424;2022-08-16T03:26:59;100103.38;;;23.19;100.00
36852;BME280;22784;52.476;13.424;2022-08-16T03:31:03;100090.16;;;23.09;100.00
36852;BME280;22784;52.476;13.424;2022-08-16T03:35:09;100064.16;;;22.92;100.00
36852;BME280;22784;52.476;13.424;2022-08-16T03:39:15;100083.03;;;23.08;100.00
36852;BME280;22784;52.476;13.424;2022-08-16T03:43:19;100103.38;;;23.19;100.00
36852;BME280;22784;52.476;13.424;2022-08-16T03:47:25;100079.16;;;23.00;100.00
36852;BME280;22784;52.476;13.424;2022-08-16T03:51:29;100108.97;;;23.19;100.00
36852;BME280;22784;52.476;13.424;2022-08-16T03:55:41;100106.66;;;23.18;100.00
36852;BME280;22784;52.476;13.424;2022-08-16T03:59:45;100107.16;;;23.16;100.00
36852;BME280;22784;52.476;13.424;2022-08-16T04:03:52;100097.75;;;23.08;100.00
36852;BME280;22784;52.476;13.424;2022-08-16T04:07:57;100111.94;;;23.10;100.00
36852;BME280;22784;52.476;13.424;2022-08-16T04:12:09;100117.50;;;23.10;100.00
36852;BME280;22784;52.476;13.424;2022-08-16T04:16:16;100117.00;;;23.12;100.00
36852;BME280;22784;52.476;13.424;2022-08-16T04:20:21;100118.53;;;23.13;100.00
36852;BME280;22784;52.476;13.424;2022-08-16T04:24:25;100108.63;;;23.06;100.00
36852;BME280;22784;52.476;13.424;2022-08-16T04:28:32;100106.06;;;23.03;100.00
36852;BME280;22784;52.476;13.424;2022-08-16T04:32:36;100105.59;;;23.10;100.00
36852;BME280;22784;52.476;13.424;2022-08-16T04:36:41;100128.28;;;23.28;100.00
36852;BME280;22784;52.476;13.424;2022-08-16T04:40:45;100136.19;;;23.36;100.00
36852;BME280;22784;52.476;13.424;2022-08-16T04:44:53;100131.84;;;23.35;100.00
36852;BME280;22784;52.476;13.424;2022-08-16T04:49:01;100130.59;;;23.36;100.00
36852;BME280;22784;52.476;13.424;2022-08-16T04:53:11;100147.44;;;23.47;100.00
36852;BME280;22784;52.476;13.424;2022-08-16T04:57:19;100118.94;;;23.37;100.00
36852;BME280;22784;52.476;13.424;2022-08-16T05:01:25;100139.00;;;23.41;100.00
36852;BME280;22784;52.476;13.424;2022-08-16T05:05:30;100132.63;;;23.35;100.00
36852;BME280;22784;52.476;13.424;2022-08-16T05:09:34;100132.63;;;23.35;100.00
36852;BME280;22784;52.476;13.424;2022-08-16T05:13:43;100159.41;;;23.58;100.00
36852;BME280;22784;52.476;13.424;2022-08-16T05:17:59;100147.88;;;23.45;100.00
36852;BME280;22784;52.476;13.424;2022-08-16T05:22:07;100124.78;;;23.39;100.00
36852;BME280;22784;52.476;13.424;2022-08-16T05:26:15;100149.03;;;23.59;100.00
36852;BME280;22784;52.476;13.424;2022-08-16T05:30:19;100162.75;;;23.68;100.00
36852;BME280;22784;52.476;13.424;2022-08-16T05:34:29;100156.66;;;23.64;100.00
36852;BME280;22784;52.476;13.424;2022-08-16T05:38:33;100155.38;;;23.65;100.00
36852;BME280;22784;52.476;13.424;2022-08-16T05:42:44;100150.09;;;23.67;100.00
36852;BME280;22784;52.476;13.424;2022-08-16T05:46:48;100116.00;;;23.52;100.00
36852;BME280;22784;52.476;13.424;2022-08-16T05:50:56;100170.94;;;23.83;100.00
36852;BME280;22784;52.476;13.424;2022-08-16T05:55:00;100171.78;;;23.94;100.00
36852;BME280;22784;52.476;13.424;2022-08-16T05:59:07;100143.34;;;23.90;100.00
36852;BME280;22784;52.476;13.424;2022-08-16T06:03:11;100177.75;;;24.30;100.00
36852;BME280;22784;52.476;13.424;2022-08-16T06:07:31;100169.19;;;24.44;100.00
36852;BME280;22784;52.476;13.424;2022-08-16T06:11:42;100145.81;;;24.47;100.00
36852;BME280;22784;52.476;13.424;2022-08-16T06:15:47;100177.13;;;24.96;100.00
36852;BME280;22784;52.476;13.424;2022-08-16T06:19:53;100181.97;;;25.12;100.00
36852;BME280;22784;52.476;13.424;2022-08-16T06:24:00;100173.31;;;25.16;100.00
36852;BME280;22784;52.476;13.424;2022-08-16T06:28:09;100193.88;;;25.35;100.00
36852;BME280;22784;52.476;13.424;2022-08-16T06:32:14;100206.59;;;25.58;100.00
36852;BME280;22784;52.476;13.424;2022-08-16T06:36:18;100209.34;;;25.75;100.00
36852;BME280;22784;52.476;13.424;2022-08-16T06:40:35;100224.09;;;25.87;100.00
36852;BME280;22784;52.476;13.424;2022-08-16T06:44:39;100230.44;;;25.93;100.00
36852;BME280;22784;52.476;13.424;2022-08-16T06:48:56;100226.88;;;25.92;100.00
36852;BME280;22784;52.476;13.424;2022-08-16T06:53:00;100232.66;;;26.11;100.00
36852;BME280;22784;52.476;13.424;2022-08-16T06:57:07;100209.22;;;26.20;100.00
36852;BME280;22784;52.476;13.424;2022-08-16T07:01:20;100233.81;;;26.49;100.00
36852;BME280;22784;52.476;13.424;2022-08-16T07:05:24;100240.34;;;26.63;100.00
36852;BME280;22784;52.476;13.424;2022-08-16T07:09:43;100220.41;;;26.72;100.00
36852;BME280;22784;52.476;13.424;2022-08-16T07:13:49;100236.84;;;26.98;100.00
36852;BME280;22784;52.476;13.424;2022-08-16T07:17:55;100235.59;;;27.23;100.00
36852;BME280;22784;52.476;13.424;2022-08-16T07:22:01;100234.53;;;27.32;100.00
36852;BME280;22784;52.476;13.424;2022-08-16T07:26:08;100226.81;;;27.38;100.00
36852;BME280;22784;52.476;13.424;2022-08-16T07:30:20;100241.69;;;27.57;100.00
36852;BME280;22784;52.476;13.424;2022-08-16T07:34:24;100244.88;;;27.72;100.00
36852;BME280;22784;52.476;13.424;2022-08-16T07:38:28;100251.66;;;27.82;100.00
36852;BME280;22784;52.476;13.424;2022-08-16T07:42:32;100240.16;;;27.86;100.00
36852;BME280;22784;52.476;13.424;2022-08-16T07:46:38;100254.13;;;27.91;100.00
36852;BME280;22784;52.476;13.424;2022-08-16T07:50:48;100255.00;;;28.05;100.00
36852;BME280;22784;52.476;13.424;2022-08-16T07:54:52;100258.34;;;28.03;100.00
36852;BME280;22784;52.476;13.424;2022-08-16T07:58:57;100266.28;;;27.99;100.00
36852;BME280;22784;52.476;13.424;2022-08-16T08:03:04;100271.50;;;27.90;100.00
36852;BME280;22784;52.476;13.424;2022-08-16T08:07:09;100267.00;;;27.81;100.00
36852;BME280;22784;52.476;13.424;2022-08-16T08:11:14;100267.00;;;27.81;100.00
36852;BME280;22784;52.476;13.424;2022-08-16T08:15:20;100250.38;;;27.59;100.00
36852;BME280;22784;52.476;13.424;2022-08-16T08:19:27;100273.09;;;27.85;100.00
36852;BME280;22784;52.476;13.424;2022-08-16T08:23:31;100267.59;;;27.74;100.00
36852;BME280;22784;52.476;13.424;2022-08-16T08:27:40;100286.94;;;27.78;100.00
36852;BME280;22784;52.476;13.424;2022-08-16T08:31:44;100289.88;;;27.91;100.00
36852;BME280;22784;52.476;13.424;2022-08-16T08:35:51;100289.84;;;27.96;100.00
36852;BME280;22784;52.476;13.424;2022-08-16T08:39:57;100290.75;;;28.04;100.00
36852;BME280;22784;52.476;13.424;2022-08-16T08:44:03;100288.38;;;28.14;100.00
36852;BME280;22784;52.476;13.424;2022-08-16T08:48:07;100296.16;;;28.27;100.00
36852;BME280;22784;52.476;13.424;2022-08-16T08:52:23;100263.41;;;28.05;100.00
36852;BME280;22784;52.476;13.424;2022-08-16T08:56:27;100297.91;;;28.30;100.00
36852;BME280;22784;52.476;13.424;2022-08-16T09:00:37;100305.16;;;28.44;100.00
36852;BME280;22784;52.476;13.424;2022-08-16T09:04:46;100301.06;;;28.45;100.00
36852;BME280;22784;52.476;13.424;2022-08-16T09:08:57;100301.75;;;28.51;100.00
36852;BME280;22784;52.476;13.424;2022-08-16T09:13:02;100308.34;;;28.54;100.00
36852;BME280;22784;52.476;13.424;2022-08-16T09:17:15;100302.13;;;28.61;100.00
36852;BME280;22784;52.476;13.424;2022-08-16T09:21:18;100298.16;;;28.69;100.00
36852;BME280;22784;52.476;13.424;2022-08-16T09:25:25;100316.91;;;28.85;100.00
36852;BME280;22784;52.476;13.424;2022-08-16T09:29:29;100291.84;;;28.63;100.00
36852;BME280;22784;52.476;13.424;2022-08-16T09:33:34;100316.84;;;28.91;100.00
36852;BME280;22784;52.476;13.424;2022-08-16T09:37:38;100309.06;;;28.97;100.00
36852;BME280;22784;52.476;13.424;2022-08-16T09:41:46;100282.16;;;29.02;100.00
36852;BME280;22784;52.476;13.424;2022-08-16T09:45:51;100310.63;;;29.11;100.00
36852;BME280;22784;52.476;13.424;2022-08-16T09:49:55;100297.00;;;29.66;100.00
36852;BME280;22784;52.476;13.424;2022-08-16T09:53:59;100278.06;;;29.35;100.00
36852;BME280;22784;52.476;13.424;2022-08-16T09:58:08;100293.94;;;29.64;100.00
36852;BME280;22784;52.476;13.424;2022-08-16T10:02:12;100305.13;;;29.83;100.00
36852;BME280;22784;52.476;13.424;2022-08-16T10:06:16;100281.91;;;29.63;97.36
36852;BME280;22784;52.476;13.424;2022-08-16T10:10:22;100296.38;;;29.86;100.00
36852;BME280;22784;52.476;13.424;2022-08-16T10:14:28;100297.28;;;30.07;100.00
36852;BME280;22784;52.476;13.424;2022-08-16T10:18:35;100295.44;;;30.10;100.00
36852;BME280;22784;52.476;13.424;2022-08-16T10:22:39;100295.34;;;30.16;93.25
36852;BME280;22784;52.476;13.424;2022-08-16T10:27:00;100299.34;;;30.33;100.00
36852;BME280;22784;52.476;13.424;2022-08-16T10:31:08;100296.28;;;30.18;91.98
36852;BME280;22784;52.476;13.424;2022-08-16T10:35:12;100303.91;;;30.10;99.79
36852;BME280;22784;52.476;13.424;2022-08-16T10:39:16;100301.28;;;30.12;100.00
36852;BME280;22784;52.476;13.424;2022-08-16T10:43:20;100249.25;;;30.13;100.00
36852;BME280;22784;52.476;13.424;2022-08-16T10:47:29;100259.81;;;30.46;93.34
36852;BME280;22784;52.476;13.424;2022-08-16T10:51:33;100298.06;;;30.81;92.58
36852;BME280;22784;52.476;13.424;2022-08-16T10:55:40;100292.78;;;31.12;95.15
36852;BME280;22784;52.476;13.424;2022-08-16T10:59:44;100298.84;;;31.37;94.66
36852;BME280;22784;52.476;13.424;2022-08-16T11:03:50;100296.72;;;31.29;79.66
36852;BME280;22784;52.476;13.424;2022-08-16T11:07:54;100273.78;;;30.99;75.60
36852;BME280;22784;52.476;13.424;2022-08-16T11:11:58;100303.75;;;31.02;86.36
36852;BME280;22784;52.476;13.424;2022-08-16T11:16:04;100285.22;;;31.48;90.54
36852;BME280;22784;52.476;13.424;2022-08-16T11:20:11;100297.72;;;31.81;69.84
36852;BME280;22784;52.476;13.424;2022-08-16T11:24:17;100284.66;;;31.99;72.65
36852;BME280;22784;52.476;13.424;2022-08-16T11:28:22;100274.09;;;32.20;75.58
36852;BME280;22784;52.476;13.424;2022-08-16T11:32:27;100301.59;;;32.20;62.57
36852;BME280;22784;52.476;13.424;2022-08-16T11:36:34;100282.09;;;32.08;75.22
36852;BME280;22784;52.476;13.424;2022-08-16T11:40:42;100288.13;;;32.41;66.83
36852;BME280;22784;52.476;13.424;2022-08-16T11:44:46;100289.59;;;32.70;75.90
36852;BME280;22784;52.476;13.424;2022-08-16T11:48:50;100281.25;;;32.65;64.98
36852;BME280;22784;52.476;13.424;2022-08-16T11:52:57;100289.09;;;32.95;70.19
36852;BME280;22784;52.476;13.424;2022-08-16T11:57:00;100259.16;;;33.22;59.12
36852;BME280;22784;52.476;13.424;2022-08-16T12:01:05;100292.25;;;33.72;57.40
36852;BME280;22784;52.476;13.424;2022-08-16T12:05:12;100265.56;;;33.91;58.40
36852;BME280;22784;52.476;13.424;2022-08-16T12:09:19;100283.72;;;33.80;50.08
36852;BME280;22784;52.476;13.424;2022-08-16T12:13:24;100286.56;;;33.50;50.31
36852;BME280;22784;52.476;13.424;2022-08-16T12:17:28;100286.75;;;37.05;57.92
36852;BME280;22784;52.476;13.424;2022-08-16T12:21:33;100271.84;;;43.31;32.58
36852;BME280;22784;52.476;13.424;2022-08-16T12:25:39;100274.34;;;47.21;24.05
36852;BME280;22784;52.476;13.424;2022-08-16T12:29:43;100284.22;;;42.56;28.83
36852;BME280;22784;52.476;13.424;2022-08-16T12:33:46;100288.81;;;39.43;33.47
36852;BME280;22784;52.476;13.424;2022-08-16T12:37:53;100272.19;;;37.27;39.87
36852;BME280;22784;52.476;13.424;2022-08-16T12:41:59;100279.41;;;35.71;37.10
36852;BME280;22784;52.476;13.424;2022-08-16T12:46:03;100226.56;;;34.14;41.23
36852;BME280;22784;52.476;13.424;2022-08-16T12:50:07;100254.25;;;33.60;48.12
36852;BME280;22784;52.476;13.424;2022-08-16T12:54:11;100226.06;;;32.94;42.42
36852;BME280;22784;52.476;13.424;2022-08-16T12:58:18;100264.25;;;32.57;46.65
36852;BME280;22784;52.476;13.424;2022-08-16T13:02:23;100275.41;;;32.19;48.59
36852;BME280;22784;52.476;13.424;2022-08-16T13:06:27;100228.97;;;31.58;48.87
36852;BME280;22784;52.476;13.424;2022-08-16T13:10:31;100279.16;;;31.65;47.46
36852;BME280;22784;52.476;13.424;2022-08-16T13:14:39;100267.28;;;31.46;48.25
36852;BME280;22784;52.476;13.424;2022-08-16T13:18:45;100231.38;;;31.25;47.16
36852;BME280;22784;52.476;13.424;2022-08-16T13:22:52;100235.72;;;32.11;48.35
36852;BME280;22784;52.476;13.424;2022-08-16T13:26:56;100242.97;;;32.20;48.29
36852;BME280;22784;52.476;13.424;2022-08-16T13:31:02;100268.38;;;32.13;46.75
36852;BME280;22784;52.476;13.424;2022-08-16T13:35:07;100263.09;;;31.81;46.70
36852;BME280;22784;52.476;13.424;2022-08-16T13:39:10;100233.22;;;31.44;51.81
36852;BME280;22784;52.476;13.424;2022-08-16T13:43:17;100276.88;;;31.63;61.04
36852;BME280;22784;52.476;13.424;2022-08-16T13:47:25;100244.84;;;31.61;59.35
36852;BME280;22784;52.476;13.424;2022-08-16T13:51:29;100258.50;;;32.06;57.98
36852;BME280;22784;52.476;13.424;2022-08-16T13:55:33;100237.50;;;31.86;61.34
36852;BME280;22784;52.476;13.424;2022-08-16T13:59:37;100232.16;;;31.75;55.57
36852;BME280;22784;52.476;13.424;2022-08-16T14:03:45;100262.97;;;31.94;56.46
36852;BME280;22784;52.476;13.424;2022-08-16T14:07:48;100242.69;;;32.03;60.14
36852;BME280;22784;52.476;13.424;2022-08-16T14:11:52;100229.91;;;31.81;52.88
36852;BME280;22784;52.476;13.424;2022-08-16T14:15:56;100258.69;;;31.72;52.91
36852;BME280;22784;52.476;13.424;2022-08-16T14:20:03;100236.25;;;31.25;53.00
36852;BME280;22784;52.476;13.424;2022-08-16T14:24:07;100262.81;;;31.50;55.87
36852;BME280;22784;52.476;13.424;2022-08-16T14:28:11;100234.41;;;31.27;53.85
36852;BME280;22784;52.476;13.424;2022-08-16T14:32:15;100257.47;;;31.60;57.56
36852;BME280;22784;52.476;13.424;2022-08-16T14:36:21;100252.34;;;31.58;54.18
36852;BME280;22784;52.476;13.424;2022-08-16T14:40:25;100262.03;;;31.63;51.71
36852;BME280;22784;52.476;13.424;2022-08-16T14:44:30;100243.09;;;31.58;47.11
36852;BME280;22784;52.476;13.424;2022-08-16T14:48:35;100252.00;;;31.41;42.50
36852;BME280;22784;52.476;13.424;2022-08-16T14:52:47;100237.78;;;31.26;48.28
36852;BME280;22784;52.476;13.424;2022-08-16T14:56:50;100194.97;;;31.01;49.46
36852;BME280;22784;52.476;13.424;2022-08-16T15:00:56;100248.88;;;31.52;47.51
36852;BME280;22784;52.476;13.424;2022-08-16T15:05:02;100215.03;;;31.31;45.53
36852;BME280;22784;52.476;13.424;2022-08-16T15:09:09;100249.47;;;31.51;43.50
36852;BME280;22784;52.476;13.424;2022-08-16T15:13:13;100247.34;;;31.44;45.71
36852;BME280;22784;52.476;13.424;2022-08-16T15:17:18;100227.28;;;31.34;46.65
36852;BME280;22784;52.476;13.424;2022-08-16T15:21:22;100242.78;;;31.41;43.89
36852;BME280;22784;52.476;13.424;2022-08-16T15:25:31;100236.94;;;31.39;44.77
36852;BME280;22784;52.476;13.424;2022-08-16T15:29:35;100236.72;;;31.37;43.92
36852;BME280;22784;52.476;13.424;2022-08-16T15:33:42;100242.00;;;31.40;46.20
36852;BME280;22784;52.476;13.424;2022-08-16T15:37:47;100219.31;;;31.25;44.26
36852;BME280;22784;52.476;13.424;2022-08-16T15:42:00;100201.28;;;31.07;45.97
36852;BME280;22784;52.476;13.424;2022-08-16T15:46:05;100250.56;;;31.48;43.29
36852;BME280;22784;52.476;13.424;2022-08-16T15:50:21;100233.22;;;31.44;42.05
36852;BME280;22784;52.476;13.424;2022-08-16T15:54:27;100186.47;;;31.14;40.35
36852;BME280;22784;52.476;13.424;2022-08-16T15:58:41;100232.59;;;31.38;38.85
36852;BME280;22784;52.476;13.424;2022-08-16T16:02:45;100233.50;;;31.33;39.61
36852;BME280;22784;52.476;13.424;2022-08-16T16:06:48;100246.44;;;31.49;43.21
36852;BME280;22784;52.476;13.424;2022-08-16T16:10:58;100222.91;;;31.25;41.16
36852;BME280;22784;52.476;13.424;2022-08-16T16:15:05;100259.72;;;31.41;42.66
36852;BME280;22784;52.476;13.424;2022-08-16T16:19:09;100258.34;;;31.34;44.31
36852;BME280;22784;52.476;13.424;2022-08-16T16:23:15;100249.81;;;31.26;43.62
36852;BME280;22784;52.476;13.424;2022-08-16T16:27:19;100251.28;;;31.20;40.89
36852;BME280;22784;52.476;13.424;2022-08-16T16:31:25;100250.09;;;31.15;43.92
36852;BME280;22784;52.476;13.424;2022-08-16T16:35:31;100252.63;;;31.06;43.59
36852;BME280;22784;52.476;13.424;2022-08-16T16:39:35;100232.41;;;30.81;41.73
36852;BME280;22784;52.476;13.424;2022-08-16T16:43:42;100264.03;;;31.00;40.06
36852;BME280;22784;52.476;13.424;2022-08-16T16:47:49;100267.53;;;30.93;42.43
36852;BME280;22784;52.476;13.424;2022-08-16T16:51:52;100235.56;;;30.57;42.45
36852;BME280;22784;52.476;13.424;2022-08-16T16:56:00;100267.91;;;30.76;42.29
36852;BME280;22784;52.476;13.424;2022-08-16T17:00:05;100271.72;;;30.79;43.09
36852;BME280;22784;52.476;13.424;2022-08-16T17:04:14;100277.63;;;30.68;42.42
36852;BME280;22784;52.476;13.424;2022-08-16T17:08:22;100255.69;;;30.47;41.67
36852;BME280;22784;52.476;13.424;2022-08-16T17:12:29;100293.13;;;30.61;41.84
36852;BME280;22784;52.476;13.424;2022-08-16T17:16:37;100289.91;;;30.57;42.52
36852;BME280;22784;52.476;13.424;2022-08-16T17:20:44;100279.28;;;30.50;42.96
36852;BME280;22784;52.476;13.424;2022-08-16T17:24:49;100245.97;;;30.22;42.85
36852;BME280;22784;52.476;13.424;2022-08-16T17:28:56;100255.75;;;30.21;42.48
36852;BME280;22784;52.476;13.424;2022-08-16T17:33:06;100298.88;;;30.42;43.37
36852;BME280;22784;52.476;13.424;2022-08-16T17:37:13;100301.81;;;30.37;43.64
36852;BME280;22784;52.476;13.424;2022-08-16T17:41:17;100251.13;;;29.97;42.81
36852;BME280;22784;52.476;13.424;2022-08-16T17:45:22;100302.69;;;30.32;43.21
36852;BME280;22784;52.476;13.424;2022-08-16T17:49:26;100309.22;;;30.27;43.66
36852;BME280;22784;52.476;13.424;2022-08-16T17:53:34;100306.28;;;30.19;44.70
36852;BME280;22784;52.476;13.424;2022-08-16T17:57:38;100300.75;;;30.00;44.84
36852;BME280;22784;52.476;13.424;2022-08-16T18:01:42;100308.88;;;30.04;44.51
36852;BME280;22784;52.476;13.424;2022-08-16T18:05:48;100293.22;;;29.90;44.30
36852;BME280;22784;52.476;13.424;2022-08-16T18:09:55;100308.34;;;29.92;45.09
36852;BME280;22784;52.476;13.424;2022-08-16T18:13:58;100311.88;;;29.80;45.08
36852;BME280;22784;52.476;13.424;2022-08-16T18:18:02;100313.91;;;29.79;45.14
36852;BME280;22784;52.476;13.424;2022-08-16T18:22:08;100317.38;;;29.72;48.43
36852;BME280;22784;52.476;13.424;2022-08-16T18:26:27;100316.38;;;29.56;47.46
36852;BME280;22784;52.476;13.424;2022-08-16T18:30:31;100317.09;;;29.44;49.38
36852;BME280;22784;52.476;13.424;2022-08-16T18:34:36;100330.06;;;29.47;47.58
36852;BME280;22784;52.476;13.424;2022-08-16T18:38:40;100334.84;;;29.39;46.81
36852;BME280;22784;52.476;13.424;2022-08-16T18:42:58;100340.75;;;29.35;46.29
36852;BME280;22784;52.476;13.424;2022-08-16T18:47:02;100345.41;;;29.33;47.58
36852;BME280;22784;52.476;13.424;2022-08-16T18:51:06;100346.78;;;29.26;47.35
36852;BME280;22784;52.476;13.424;2022-08-16T18:55:10;100321.78;;;29.04;47.66
36852;BME280;22784;52.476;13.424;2022-08-16T18:59:16;100342.97;;;29.05;47.88
36852;BME280;22784;52.476;13.424;2022-08-16T19:03:21;100331.88;;;28.94;47.01
36852;BME280;22784;52.476;13.424;2022-08-16T19:07:26;100353.53;;;28.99;47.69
36852;BME280;22784;52.476;13.424;2022-08-16T19:11:29;100358.97;;;28.97;48.62
36852;BME280;22784;52.476;13.424;2022-08-16T19:15:41;100334.41;;;28.78;46.88
36852;BME280;22784;52.476;13.424;2022-08-16T19:19:45;100324.31;;;28.64;47.94
36852;BME280;22784;52.476;13.424;2022-08-16T19:23:49;100351.28;;;28.78;46.46
36852;BME280;22784;52.476;13.424;2022-08-16T19:27:53;100368.31;;;28.86;46.32
36852;BME280;22784;52.476;13.424;2022-08-16T19:31:59;100349.28;;;28.73;47.78
36852;BME280;22784;52.476;13.424;2022-08-16T19:36:03;100374.47;;;28.84;47.84
36852;BME280;22784;52.476;13.424;2022-08-16T19:40:09;100381.69;;;28.80;46.74
36852;BME280;22784;52.476;13.424;2022-08-16T19:44:13;100381.50;;;28.72;47.20
36852;BME280;22784;52.476;13.424;2022-08-16T19:48:20;100382.38;;;28.62;47.27
36852;BME280;22784;52.476;13.424;2022-08-16T19:52:25;100389.00;;;28.64;48.84
36852;BME280;22784;52.476;13.424;2022-08-16T19:56:29;100386.19;;;28.64;48.49
36852;BME280;22784;52.476;13.424;2022-08-16T20:00:34;100383.16;;;28.62;48.24
36852;BME280;22784;52.476;13.424;2022-08-16T20:04:42;100393.16;;;28.58;48.75
36852;BME280;22784;52.476;13.424;2022-08-16T20:08:46;100374.16;;;28.45;48.88
36852;BME280;22784;52.476;13.424;2022-08-16T20:12:50;100393.78;;;28.50;49.23
36852;BME280;22784;52.476;13.424;2022-08-16T20:16:56;100388.72;;;28.43;49.06
36852;BME280;22784;52.476;13.424;2022-08-16T20:21:03;100398.16;;;28.46;49.64
36852;BME280;22784;52.476;13.424;2022-08-16T20:25:09;100388.31;;;28.34;50.19
36852;BME280;22784;52.476;13.424;2022-08-16T20:29:14;100404.38;;;28.39;49.67
36852;BME280;22784;52.476;13.424;2022-08-16T20:33:17;100390.97;;;28.26;50.17
36852;BME280;22784;52.476;13.424;2022-08-16T20:37:24;100385.41;;;28.21;50.61
36852;BME280;22784;52.476;13.424;2022-08-16T20:41:28;100409.81;;;28.31;51.09
36852;BME280;22784;52.476;13.424;2022-08-16T20:45:34;100357.00;;;27.94;51.14
36852;BME280;22784;52.476;13.424;2022-08-16T20:49:37;100413.72;;;28.23;51.69
36852;BME280;22784;52.476;13.424;2022-08-16T20:53:44;100416.53;;;28.23;52.10
36852;BME280;22784;52.476;13.424;2022-08-16T20:57:47;100399.81;;;28.06;52.21
36852;BME280;22784;52.476;13.424;2022-08-16T21:01:51;100416.59;;;28.17;52.88
36852;BME280;22784;52.476;13.424;2022-08-16T21:05:55;100412.78;;;28.15;52.73